createdAt,value
2023-03-11T00:03:20.625Z,0.8
2023-03-11T00:09:40.538Z,0.8
2023-03-11T00:16:03.652Z,1.2
2023-03-11T00:22:23.690Z,1.2
2023-03-11T00:28:46.636Z,1.6
2023-03-11T00:35:06.596Z,1.6
2023-03-11T00:41:29.522Z,0.9
2023-03-11T00:47:49.665Z,0.9
2023-03-11T00:54:12.516Z,1
2023-03-11T01:00:32.719Z,1
2023-03-11T01:06:55.563Z,1
2023-03-11T01:13:15.600Z,1
2023-03-11T01:19:38.677Z,1.4
2023-03-11T01:25:58.693Z,1.4
2023-03-11T01:32:21.697Z,1.9
2023-03-11T01:38:41.749Z,1.9
2023-03-11T01:45:04.774Z,2.5
2023-03-11T01:51:24.820Z,2.5
2023-03-11T01:57:47.661Z,1.4
2023-03-11T02:04:07.685Z,1.4
2023-03-11T02:10:30.611Z,0.7
2023-03-11T02:16:50.851Z,0.7
2023-03-11T02:23:13.585Z,1.6
2023-03-11T02:29:33.615Z,1.6
2023-03-11T02:35:56.533Z,1.6
2023-03-11T02:42:16.593Z,1.6
2023-03-11T02:48:39.569Z,1.6
2023-03-11T02:54:59.590Z,1.6
2023-03-11T03:01:22.724Z,0.8
2023-03-11T03:07:42.653Z,0.8
2023-03-11T03:14:05.689Z,0.6
2023-03-11T03:20:25.552Z,0.6
2023-03-11T03:26:48.478Z,1.9
2023-03-11T03:33:08.557Z,1.9
2023-03-11T03:39:31.550Z,2.3
2023-03-11T03:45:51.549Z,2.3
2023-03-11T03:52:14.501Z,0.1
2023-03-11T03:58:34.631Z,0.1
2023-03-11T04:04:57.705Z,0.6
2023-03-11T04:28:21.468Z,0.6
2023-03-11T04:34:41.538Z,0.6
2023-03-11T04:41:04.624Z,0.3
2023-03-11T04:47:24.558Z,0.3
2023-03-11T04:53:47.564Z,0.8
2023-03-11T05:00:07.493Z,0.8
2023-03-11T05:06:30.748Z,0.3
2023-03-11T05:12:50.677Z,0.3
2023-03-11T05:19:13.690Z,2.1
2023-03-11T05:25:33.735Z,2.1
2023-03-11T05:31:56.578Z,1.2
2023-03-11T05:38:16.487Z,1.2
2023-03-11T05:44:39.703Z,0.9
2023-03-11T05:50:59.664Z,0.9
2023-03-11T05:57:22.740Z,0.7
2023-03-11T06:03:42.709Z,0.7
2023-03-11T06:10:05.628Z,0.7
2023-03-11T06:16:25.765Z,0.7
2023-03-11T06:22:48.545Z,0.4
2023-03-11T06:29:08.521Z,0.4
2023-03-11T06:35:31.662Z,1
2023-03-11T06:41:51.516Z,1
2023-03-11T06:48:14.677Z,1.2
2023-03-11T06:54:34.738Z,1.2
2023-03-11T07:00:57.739Z,0.9
2023-03-11T07:07:17.500Z,0.9
2023-03-11T07:13:40.506Z,4.7
2023-03-11T07:20:00.554Z,4.7
2023-03-11T07:26:23.683Z,0.8
2023-03-11T07:32:43.673Z,0.8
2023-03-11T07:39:06.543Z,0.6
2023-03-11T07:45:26.577Z,0.6
2023-03-11T07:51:49.536Z,0.9
2023-03-11T07:58:09.541Z,0.9
2023-03-11T08:04:32.621Z,1.2
2023-03-11T08:10:52.502Z,1.2
2023-03-11T08:17:15.684Z,0.3
2023-03-11T08:23:35.723Z,0.3
2023-03-11T08:29:58.606Z,1
2023-03-11T08:36:18.809Z,1
2023-03-11T08:42:41.807Z,2.1
2023-03-11T08:49:01.787Z,2.1
2023-03-11T08:55:24.563Z,0.9
2023-03-11T09:01:44.666Z,0.9
2023-03-11T09:08:07.692Z,1
2023-03-11T09:31:32.515Z,0.9
2023-03-11T09:37:52.492Z,0.9
2023-03-11T09:44:15.569Z,0.6
2023-03-11T09:50:35.528Z,0.6
2023-03-11T09:56:58.501Z,0.7
2023-03-11T10:03:18.742Z,0.7
2023-03-11T10:09:41.646Z,0.4
2023-03-11T10:16:01.552Z,0.4
2023-03-11T10:22:24.517Z,0.3
2023-03-11T10:28:44.573Z,0.3
2023-03-11T10:35:07.611Z,0.5
2023-03-11T10:41:27.636Z,0.5
2023-03-11T10:47:50.645Z,1.4
2023-03-11T10:54:10.514Z,1.4
2023-03-11T11:00:33.558Z,0.8
2023-03-11T11:06:53.670Z,0.8
2023-03-11T11:13:16.507Z,0.2
2023-03-11T11:19:37.048Z,0.2
2023-03-11T11:25:59.655Z,0.7
2023-03-11T11:32:19.697Z,0.7
2023-03-11T11:38:42.599Z,0.1
2023-03-11T11:45:02.594Z,0.1
2023-03-11T11:51:25.626Z,3.1
2023-03-11T11:57:45.961Z,3.1
2023-03-11T12:04:08.584Z,0.8
2023-03-11T12:10:28.669Z,0.8
2023-03-11T12:16:51.552Z,0.7
2023-03-11T12:23:11.607Z,0.7
2023-03-11T12:29:34.565Z,1.4
2023-03-11T12:35:54.562Z,1.4
2023-03-11T12:42:17.626Z,0.4
2023-03-11T12:48:37.529Z,0.4
2023-03-11T12:55:00.591Z,0.8
2023-03-11T13:01:20.631Z,0.8
2023-03-11T13:07:43.536Z,0.8
2023-03-11T13:14:03.590Z,0.8
2023-03-11T13:20:26.762Z,1.3
2023-03-11T13:26:46.600Z,1.3
2023-03-11T13:33:09.525Z,0.2
2023-03-11T13:39:29.655Z,0.2
2023-03-11T13:45:52.643Z,0.8
2023-03-11T13:52:12.558Z,0.8
2023-03-11T13:58:35.614Z,0.6
2023-03-11T14:04:55.572Z,0.6
2023-03-11T14:11:18.572Z,0.8
2023-03-11T14:17:38.571Z,0.8
2023-03-11T14:24:01.548Z,0.5
2023-03-11T14:30:21.576Z,0.5
2023-03-11T14:46:48.690Z,1.4
2023-03-11T14:53:08.538Z,1.4
2023-03-11T14:59:31.751Z,1.4
2023-03-11T15:05:52.093Z,1.4
2023-03-11T15:12:14.590Z,0.4
2023-03-11T15:18:34.568Z,0.4
2023-03-11T15:24:57.574Z,0.7
2023-03-11T15:31:17.648Z,0.7
2023-03-11T15:37:40.539Z,1.6
2023-03-11T15:44:00.562Z,1.6
2023-03-11T15:50:25.323Z,0.6
2023-03-11T15:56:43.499Z,0.6
2023-03-11T16:03:06.580Z,0.9
2023-03-11T16:09:26.696Z,0.9
2023-03-11T16:15:49.598Z,1
2023-03-11T16:22:09.660Z,1
2023-03-11T16:28:32.602Z,1
2023-03-11T16:34:52.676Z,1
2023-03-11T16:41:15.694Z,0.4
2023-03-11T16:47:35.653Z,0.4
2023-03-11T16:53:58.621Z,2
2023-03-11T17:00:18.690Z,2
2023-03-11T17:06:41.607Z,1.2
2023-03-11T17:13:01.578Z,1.2
2023-03-11T17:19:24.635Z,0.9
2023-03-11T17:25:44.548Z,0.9
2023-03-11T17:32:07.539Z,0.8
2023-03-11T17:38:27.710Z,0.8
2023-03-11T17:44:52.144Z,0.3
2023-03-11T17:51:10.636Z,0.3
2023-03-11T17:57:42.883Z,1.9
2023-03-11T18:03:53.593Z,1.9
2023-03-11T18:10:16.703Z,0.5
2023-03-11T18:16:36.676Z,0.5
2023-03-11T18:22:59.553Z,0.7
2023-03-11T18:29:19.622Z,0.7
2023-03-11T18:35:42.751Z,1.1
2023-03-11T18:42:02.572Z,1.1
2023-03-11T18:48:25.493Z,0.8
2023-03-11T18:54:45.513Z,0.8
2023-03-11T19:01:08.688Z,1.2
2023-03-11T19:07:28.483Z,1.2
2023-03-11T19:13:51.734Z,1.2
2023-03-11T19:20:11.785Z,1.2
2023-03-11T19:26:44.060Z,2.7
2023-03-11T19:32:54.610Z,2.7
2023-03-11T19:39:17.485Z,1.5
2023-03-11T19:56:19.122Z,2.3
2023-03-11T20:02:41.622Z,5.3
2023-03-11T20:09:01.627Z,5.3
2023-03-11T20:15:24.595Z,5.3
2023-03-11T20:21:45.882Z,5.3
2023-03-11T20:28:07.702Z,2.7
2023-03-11T20:34:27.817Z,2.7
2023-03-11T20:40:50.594Z,3
2023-03-11T20:47:10.640Z,3
2023-03-11T20:53:33.575Z,3.3
2023-03-11T20:59:53.572Z,3.3
2023-03-11T21:06:16.505Z,3.5
2023-03-11T21:12:36.619Z,3.5
2023-03-11T21:18:59.703Z,2.1
2023-03-11T21:25:19.615Z,2.1
2023-03-11T21:31:43.624Z,2.5
2023-03-11T21:38:03.607Z,2.5
2023-03-11T21:44:26.606Z,2.4
2023-03-11T21:50:46.585Z,2.4
2023-03-11T21:57:09.640Z,1.9
2023-03-11T22:03:29.584Z,1.9
2023-03-11T22:09:52.675Z,2.7
2023-03-11T22:16:12.812Z,2.7
2023-03-11T22:22:35.677Z,1.8
2023-03-11T22:28:55.636Z,1.8
2023-03-11T22:35:18.601Z,2.9
2023-03-11T22:41:38.643Z,2.9
2023-03-11T22:48:01.560Z,1.8
2023-03-11T22:54:21.547Z,1.8
2023-03-11T23:00:44.553Z,3.1
2023-03-11T23:23:41.535Z,6
2023-03-11T23:30:01.532Z,6
2023-03-11T23:36:24.496Z,6
2023-03-11T23:42:44.591Z,6
2023-03-11T23:49:07.629Z,2.5
2023-03-11T23:55:27.519Z,2.5
